createdAt,value
2017-06-03T00:01:33.371Z,16.00
2017-06-03T00:04:01.768Z,17.06
2017-06-03T00:06:30.135Z,16.36
2017-06-03T00:08:58.528Z,17.04
2017-06-03T00:11:26.893Z,16.48
2017-06-03T00:13:55.260Z,16.18
2017-06-03T00:16:23.642Z,16.86
2017-06-03T00:18:52.013Z,17.12
2017-06-03T00:21:20.403Z,19.28
2017-06-03T00:23:48.768Z,16.44
2017-06-03T00:26:17.156Z,17.96
2017-06-03T00:28:45.535Z,18.36
2017-06-03T00:31:13.928Z,19.98
2017-06-03T00:33:42.287Z,17.10
2017-06-03T00:36:10.653Z,18.28
2017-06-03T00:38:39.034Z,18.02
2017-06-03T00:41:07.410Z,19.16
2017-06-03T00:43:35.795Z,17.92
2017-06-03T00:46:04.159Z,17.78
2017-06-03T00:48:32.551Z,17.64
2017-06-03T00:51:00.157Z,17.52
2017-06-03T00:53:28.547Z,30.54
2017-06-03T00:55:56.911Z,30.34
2017-06-03T00:58:25.280Z,18.36
2017-06-03T01:00:53.671Z,18.32
2017-06-03T01:03:22.036Z,19.02
2017-06-03T01:05:50.449Z,19.26
2017-06-03T01:08:18.821Z,20.14
2017-06-03T01:10:47.215Z,18.58
2017-06-03T01:13:15.583Z,17.56
2017-06-03T01:15:43.979Z,19.40
2017-06-03T01:18:12.338Z,18.00
2017-06-03T01:20:40.708Z,18.20
2017-06-03T01:23:09.094Z,21.68
2017-06-03T01:25:37.463Z,18.38
2017-06-03T01:28:05.853Z,18.52
2017-06-03T01:30:34.219Z,18.84
2017-06-03T01:33:02.624Z,18.14
2017-06-03T01:35:30.994Z,32.56
2017-06-03T01:37:59.363Z,21.42
2017-06-03T01:40:27.747Z,19.90
2017-06-03T01:42:56.113Z,17.30
2017-06-03T01:45:24.503Z,18.40
2017-06-03T01:47:52.873Z,18.40
2017-06-03T01:50:21.607Z,19.36
2017-06-03T01:52:49.979Z,25.52
2017-06-03T01:55:18.347Z,17.36
2017-06-03T01:57:46.730Z,17.22
2017-06-03T02:00:15.086Z,20.96
2017-06-03T02:02:43.467Z,18.58
2017-06-03T02:05:11.823Z,17.44
2017-06-03T02:07:40.225Z,16.86
2017-06-03T02:10:08.587Z,15.58
2017-06-03T02:12:36.947Z,15.54
2017-06-03T02:15:05.347Z,16.98
2017-06-03T02:17:33.710Z,17.96
2017-06-03T02:20:02.111Z,50.66
2017-06-03T02:22:30.474Z,30.24
2017-06-03T02:24:58.867Z,23.02
2017-06-03T02:27:27.234Z,19.02
2017-06-03T02:29:55.626Z,15.94
2017-06-03T02:32:23.986Z,16.98
2017-06-03T02:34:52.378Z,20.04
2017-06-03T02:37:20.775Z,17.80
2017-06-03T02:39:49.138Z,17.72
2017-06-03T02:42:17.527Z,17.46
2017-06-03T02:44:45.888Z,17.74
2017-06-03T02:47:14.265Z,17.44
2017-06-03T02:49:42.629Z,17.58
2017-06-03T02:52:11.010Z,17.90
2017-06-03T02:54:39.383Z,43.34
2017-06-03T02:57:07.746Z,26.84
2017-06-03T02:59:36.123Z,22.92
2017-06-03T03:02:04.487Z,21.36
2017-06-03T03:04:32.871Z,19.46
2017-06-03T03:07:01.235Z,22.56
2017-06-03T03:09:29.616Z,18.72
2017-06-03T03:11:57.986Z,16.42
2017-06-03T03:14:26.402Z,15.62
2017-06-03T03:16:54.764Z,18.26
2017-06-03T03:19:23.135Z,22.22
2017-06-03T03:21:51.523Z,37.38
2017-06-03T03:24:19.887Z,35.44
2017-06-03T03:26:48.275Z,24.20
2017-06-03T03:29:15.872Z,24.86
2017-06-03T03:31:44.259Z,21.14
2017-06-03T03:34:12.622Z,24.84
2017-06-03T03:36:41.006Z,21.34
2017-06-03T03:39:09.378Z,17.64
2017-06-03T03:41:37.744Z,34.84
2017-06-03T03:44:06.159Z,19.34
2017-06-03T03:46:34.530Z,21.22
2017-06-03T03:49:02.916Z,16.46
2017-06-03T03:51:31.279Z,25.76
2017-06-03T03:53:59.674Z,18.98
2017-06-03T03:56:28.040Z,15.44
2017-06-03T03:58:56.426Z,16.42
2017-06-03T04:01:24.787Z,15.36
2017-06-03T04:03:53.147Z,15.02
2017-06-03T04:06:21.531Z,31.74
2017-06-03T04:08:49.915Z,21.12
2017-06-03T04:11:18.294Z,18.84
2017-06-03T04:13:46.679Z,17.60
2017-06-03T04:16:15.066Z,17.22
2017-06-03T04:18:43.429Z,17.44
2017-06-03T04:21:11.826Z,16.58
2017-06-03T04:23:40.192Z,15.58
2017-06-03T04:26:08.559Z,14.96
2017-06-03T04:28:36.974Z,13.78
2017-06-03T04:31:05.333Z,15.00
2017-06-03T04:33:33.736Z,14.26
2017-06-03T04:36:02.105Z,14.86
2017-06-03T04:38:30.499Z,14.20
2017-06-03T04:40:58.870Z,14.26
2017-06-03T04:43:27.259Z,14.38
2017-06-03T04:45:55.623Z,15.28
2017-06-03T04:48:23.984Z,14.38
2017-06-03T04:50:52.371Z,14.36
2017-06-03T04:53:20.735Z,13.74
2017-06-03T04:55:49.119Z,14.06
2017-06-03T04:58:17.503Z,13.30
2017-06-03T05:00:45.904Z,14.04
2017-06-03T05:03:14.272Z,13.72
2017-06-03T05:05:42.638Z,13.42
2017-06-03T05:08:11.246Z,12.18
2017-06-03T05:10:39.619Z,12.60
2017-06-03T05:13:08.003Z,13.34
2017-06-03T05:15:36.364Z,13.04
2017-06-03T05:18:04.774Z,13.58
2017-06-03T05:20:33.151Z,11.06
2017-06-03T05:23:02.267Z,12.80
2017-06-03T05:25:30.651Z,12.38
2017-06-03T05:27:59.020Z,13.10
2017-06-03T05:30:27.407Z,13.32
2017-06-03T05:32:55.780Z,16.26
2017-06-03T05:35:24.202Z,11.44
2017-06-03T05:37:52.564Z,11.16
2017-06-03T05:40:20.951Z,10.96
2017-06-03T05:42:49.336Z,10.92
2017-06-03T05:45:17.707Z,11.28
2017-06-03T05:47:46.322Z,11.16
2017-06-03T05:50:14.683Z,11.18
2017-06-03T05:52:43.108Z,11.04
2017-06-03T05:55:11.462Z,10.72
2017-06-03T05:57:39.819Z,11.68
2017-06-03T06:00:08.218Z,11.76
2017-06-03T06:02:36.582Z,11.84
2017-06-03T06:05:04.975Z,12.34
2017-06-03T06:07:33.348Z,11.44
2017-06-03T06:10:01.747Z,11.30
2017-06-03T06:12:30.109Z,11.46
2017-06-03T06:14:58.474Z,10.54
2017-06-03T06:17:26.856Z,10.48
2017-06-03T06:19:55.212Z,12.02
2017-06-03T06:22:23.613Z,11.90
2017-06-03T06:24:51.976Z,95.14
2017-06-03T06:27:20.377Z,22.54
2017-06-03T06:29:48.743Z,20.34
2017-06-03T06:32:17.103Z,18.86
2017-06-03T06:34:45.488Z,22.12
2017-06-03T06:37:13.846Z,18.96
2017-06-03T06:39:42.251Z,16.54
2017-06-03T06:42:10.610Z,13.60
2017-06-03T06:44:38.981Z,14.26
2017-06-03T06:47:07.369Z,14.10
2017-06-03T06:49:35.726Z,13.40
2017-06-03T06:52:04.111Z,12.84
2017-06-03T06:54:32.474Z,12.60
2017-06-03T06:57:00.836Z,13.70
2017-06-03T06:59:29.235Z,12.24
2017-06-03T07:01:57.611Z,12.48
2017-06-03T07:04:26.030Z,13.38
2017-06-03T07:06:54.411Z,12.22
2017-06-03T07:09:22.826Z,12.14
2017-06-03T07:11:51.210Z,12.06
2017-06-03T07:14:19.582Z,12.70
2017-06-03T07:16:47.975Z,15.52
2017-06-03T07:19:16.342Z,12.14
2017-06-03T07:21:44.734Z,11.50
2017-06-03T07:24:13.112Z,12.24
2017-06-03T07:26:41.522Z,9.84
2017-06-03T07:29:09.883Z,10.76
2017-06-03T07:31:38.248Z,9.12
2017-06-03T07:34:06.637Z,7.52
2017-06-03T07:36:34.998Z,8.28
2017-06-03T07:39:03.430Z,7.64
2017-06-03T07:41:31.794Z,7.44
2017-06-03T07:44:00.227Z,7.58
2017-06-03T07:46:28.580Z,8.40
2017-06-03T07:48:56.936Z,7.80
2017-06-03T07:51:25.315Z,8.06
2017-06-03T07:53:53.671Z,10.58
2017-06-03T07:56:22.043Z,7.56
2017-06-03T07:58:50.395Z,7.04
2017-06-03T08:01:18.777Z,7.06
2017-06-03T08:03:47.135Z,7.78
2017-06-03T08:06:15.493Z,9.92
2017-06-03T08:08:43.867Z,8.12
2017-06-03T08:11:12.238Z,12.72
2017-06-03T08:13:40.652Z,8.96
2017-06-03T08:16:09.010Z,6.80
2017-06-03T08:18:37.364Z,7.86
2017-06-03T08:21:05.750Z,8.82
2017-06-03T08:23:34.244Z,6.88
2017-06-03T08:26:02.628Z,7.80
2017-06-03T08:28:30.982Z,7.34
2017-06-03T08:30:59.371Z,6.96
2017-06-03T08:33:27.731Z,6.76
2017-06-03T08:35:56.083Z,7.20
2017-06-03T08:38:24.502Z,7.74
2017-06-03T08:40:52.867Z,6.76
2017-06-03T08:43:21.265Z,7.74
2017-06-03T08:45:49.619Z,6.30
2017-06-03T08:48:18.126Z,7.02
2017-06-03T08:50:46.487Z,6.70
2017-06-03T08:53:14.860Z,9.24
2017-06-03T08:55:43.242Z,6.66
2017-06-03T08:58:11.611Z,6.56
2017-06-03T09:00:39.991Z,8.08
2017-06-03T09:03:08.353Z,7.18
2017-06-03T09:05:36.748Z,7.44
2017-06-03T09:08:05.106Z,7.50
2017-06-03T09:10:33.479Z,6.80
2017-06-03T09:13:01.861Z,6.20
2017-06-03T09:15:30.232Z,7.44
2017-06-03T09:17:58.615Z,7.46
2017-06-03T09:20:26.989Z,7.68
2017-06-03T09:22:55.377Z,6.80
2017-06-03T09:25:23.757Z,7.68
2017-06-03T09:27:51.347Z,9.14
2017-06-03T09:30:19.726Z,7.42
2017-06-03T09:32:48.092Z,11.60
2017-06-03T09:35:16.493Z,8.48
2017-06-03T09:37:44.863Z,8.70
2017-06-03T09:40:13.223Z,7.44
2017-06-03T09:42:41.599Z,7.94
2017-06-03T09:45:09.960Z,7.70
2017-06-03T09:47:38.343Z,7.58
2017-06-03T09:50:06.716Z,7.18
2017-06-03T09:52:35.104Z,7.90
2017-06-03T09:55:03.468Z,7.28
2017-06-03T09:57:31.826Z,8.02
2017-06-03T10:00:00.207Z,8.32
2017-06-03T10:02:28.564Z,7.24
2017-06-03T10:04:56.944Z,7.90
2017-06-03T10:07:25.303Z,7.94
2017-06-03T10:09:53.696Z,7.22
2017-06-03T10:12:22.054Z,7.04
2017-06-03T10:14:50.410Z,7.82
2017-06-03T10:17:18.786Z,7.84
2017-06-03T10:19:47.145Z,7.24
2017-06-03T10:22:15.523Z,7.68
2017-06-03T10:24:43.906Z,8.80
2017-06-03T10:27:12.315Z,7.58
2017-06-03T10:29:40.674Z,7.66
2017-06-03T10:32:09.032Z,7.96
2017-06-03T10:34:37.411Z,7.30
2017-06-03T10:37:05.779Z,7.94
2017-06-03T10:39:34.156Z,7.40
2017-06-03T10:42:02.511Z,6.94
2017-06-03T10:44:30.901Z,7.52
2017-06-03T10:46:59.261Z,7.68
2017-06-03T10:49:27.638Z,8.04
2017-06-03T10:51:55.990Z,8.06
2017-06-03T10:54:24.420Z,7.86
2017-06-03T10:56:52.792Z,7.70
2017-06-03T10:59:21.147Z,7.90
2017-06-03T11:01:49.541Z,7.74
2017-06-03T11:04:17.900Z,6.98
2017-06-03T11:06:46.279Z,7.22
2017-06-03T11:09:14.639Z,7.84
2017-06-03T11:11:43.022Z,8.16
2017-06-03T11:14:11.403Z,7.20
2017-06-03T11:16:39.782Z,7.32
2017-06-03T11:19:08.154Z,6.78
2017-06-03T11:21:36.562Z,9.22
2017-06-03T11:24:04.922Z,6.42
2017-06-03T11:26:33.289Z,7.38
2017-06-03T11:29:01.675Z,8.10
2017-06-03T11:31:29.263Z,8.96
2017-06-03T11:33:57.634Z,7.40
2017-06-03T11:36:25.223Z,7.16
2017-06-03T11:38:53.617Z,8.20
2017-06-03T11:41:21.977Z,7.20
2017-06-03T11:43:50.391Z,6.84
2017-06-03T11:46:18.746Z,8.36
2017-06-03T11:48:47.107Z,7.20
2017-06-03T11:51:15.560Z,7.50
2017-06-03T11:53:43.934Z,8.34
2017-06-03T11:56:12.321Z,8.10
2017-06-03T11:58:40.681Z,8.12
2017-06-03T12:01:09.079Z,7.36
2017-06-03T12:03:37.435Z,8.06
2017-06-03T12:06:05.840Z,8.38
2017-06-03T12:08:33.479Z,8.14
2017-06-03T12:11:01.884Z,8.70
2017-06-03T12:13:30.275Z,9.28
2017-06-03T12:15:58.629Z,8.30
2017-06-03T12:18:27.008Z,8.34
2017-06-03T12:20:55.364Z,8.52
2017-06-03T12:23:23.758Z,9.88
2017-06-03T12:25:52.120Z,8.20
2017-06-03T12:28:20.503Z,8.68
2017-06-03T12:30:48.874Z,8.66
2017-06-03T12:33:17.228Z,7.82
2017-06-03T12:35:45.610Z,8.40
2017-06-03T12:38:13.970Z,8.44
2017-06-03T12:40:43.333Z,8.66
2017-06-03T12:43:11.693Z,9.72
2017-06-03T12:45:40.099Z,8.78
2017-06-03T12:48:08.462Z,9.02
2017-06-03T12:50:36.822Z,9.02
2017-06-03T12:53:05.203Z,8.94
2017-06-03T12:55:33.683Z,8.90
2017-06-03T12:58:02.095Z,8.46
2017-06-03T13:00:30.457Z,8.56
2017-06-03T13:02:58.868Z,8.64
2017-06-03T13:05:27.230Z,9.64
2017-06-03T13:07:55.682Z,8.42
2017-06-03T13:10:24.072Z,9.12
2017-06-03T13:12:52.431Z,8.84
2017-06-03T13:15:20.815Z,8.72
2017-06-03T13:17:49.171Z,7.38
2017-06-03T13:20:17.577Z,8.80
2017-06-03T13:22:45.170Z,8.66
2017-06-03T13:25:13.529Z,8.50
2017-06-03T13:27:41.915Z,8.12
2017-06-03T13:30:10.274Z,8.70
2017-06-03T13:32:38.644Z,8.70
2017-06-03T13:35:07.026Z,8.12
2017-06-03T13:37:36.331Z,8.44
2017-06-03T13:40:04.716Z,8.90
2017-06-03T13:42:33.083Z,8.28
2017-06-03T13:45:01.439Z,8.14
2017-06-03T13:47:29.820Z,8.64
2017-06-03T13:49:58.178Z,7.80
2017-06-03T13:52:26.574Z,7.62
2017-06-03T13:54:54.934Z,8.86
2017-06-03T13:57:23.291Z,8.22
2017-06-03T13:59:51.670Z,8.32
2017-06-03T14:02:20.031Z,8.64
2017-06-03T14:04:48.450Z,10.44
2017-06-03T14:07:16.806Z,7.92
2017-06-03T14:09:45.162Z,8.48
2017-06-03T14:12:13.543Z,8.76
2017-06-03T14:14:41.908Z,8.52
2017-06-03T14:17:09.530Z,8.52
2017-06-03T14:19:37.890Z,8.12
2017-06-03T14:22:06.322Z,8.48
2017-06-03T14:24:34.707Z,9.28
2017-06-03T14:27:03.071Z,10.94
2017-06-03T14:29:31.467Z,9.90
2017-06-03T14:31:59.830Z,9.58
2017-06-03T14:34:28.190Z,9.60
2017-06-03T14:36:57.536Z,8.60
2017-06-03T14:39:25.901Z,8.82
2017-06-03T14:41:54.318Z,8.60
2017-06-03T14:44:22.678Z,8.60
2017-06-03T14:46:51.063Z,9.94
2017-06-03T14:49:19.445Z,9.26
2017-06-03T14:51:47.812Z,10.10
2017-06-03T14:54:16.224Z,9.20
2017-06-03T14:56:44.640Z,9.08
2017-06-03T14:59:13.004Z,9.18
2017-06-03T15:01:41.415Z,10.06
2017-06-03T15:04:09.783Z,9.82
2017-06-03T15:06:38.203Z,9.62
2017-06-03T15:09:06.560Z,9.80
2017-06-03T15:11:34.918Z,9.80
2017-06-03T15:14:03.356Z,9.60
2017-06-03T15:16:31.728Z,10.30
2017-06-03T15:19:00.111Z,9.58
2017-06-03T15:21:28.479Z,10.28
2017-06-03T15:23:56.870Z,9.60
2017-06-03T15:26:25.234Z,10.76
2017-06-03T15:28:53.627Z,10.88
2017-06-03T15:31:22.014Z,9.80
2017-06-03T15:33:50.421Z,10.88
2017-06-03T15:36:18.813Z,12.72
2017-06-03T15:38:47.178Z,11.04
2017-06-03T15:41:15.590Z,11.70
2017-06-03T15:43:44.035Z,10.74
2017-06-03T15:46:12.404Z,12.56
2017-06-03T15:48:40.811Z,10.10
2017-06-03T15:51:09.170Z,9.74
2017-06-03T15:53:37.587Z,10.80
2017-06-03T15:56:05.987Z,9.60
2017-06-03T15:58:34.374Z,10.26
2017-06-03T16:01:02.755Z,9.70
2017-06-03T16:03:31.172Z,8.94
2017-06-03T16:05:59.555Z,12.16
2017-06-03T16:08:27.931Z,11.30
2017-06-03T16:10:56.319Z,10.56
2017-06-03T16:13:24.675Z,9.92
2017-06-03T16:15:53.062Z,10.80
2017-06-03T16:18:21.430Z,10.00
2017-06-03T16:20:49.823Z,10.06
2017-06-03T16:23:18.186Z,10.38
2017-06-03T16:25:46.594Z,10.66
2017-06-03T16:28:14.964Z,10.46
2017-06-03T16:30:43.329Z,10.06
2017-06-03T16:33:11.705Z,9.98
2017-06-03T16:35:40.065Z,10.12
2017-06-03T16:38:08.459Z,11.44
2017-06-03T16:40:36.822Z,10.58
2017-06-03T16:43:05.202Z,11.20
2017-06-03T16:45:33.560Z,11.48
2017-06-03T16:48:01.945Z,10.56
2017-06-03T16:50:30.310Z,11.46
2017-06-03T16:52:58.701Z,10.38
2017-06-03T16:55:27.066Z,9.86
2017-06-03T16:57:55.450Z,10.94
2017-06-03T17:00:23.834Z,9.06
2017-06-03T17:02:52.207Z,14.74
2017-06-03T17:05:20.583Z,13.80
2017-06-03T17:07:48.942Z,10.64
2017-06-03T17:10:17.318Z,9.74
2017-06-03T17:12:45.682Z,8.64
2017-06-03T17:15:14.094Z,11.46
2017-06-03T17:17:42.463Z,10.18
2017-06-03T17:20:10.830Z,11.12
2017-06-03T17:22:38.968Z,13.72
2017-06-03T17:25:07.355Z,13.54
2017-06-03T17:27:35.745Z,11.72
2017-06-03T17:30:04.115Z,12.00
2017-06-03T17:32:32.495Z,10.12
2017-06-03T17:35:00.876Z,10.00
2017-06-03T17:37:29.341Z,10.52
2017-06-03T17:39:57.734Z,12.18
2017-06-03T17:42:26.128Z,9.78
2017-06-03T17:44:54.514Z,10.30
2017-06-03T17:47:22.926Z,9.62
2017-06-03T17:49:51.307Z,8.80
2017-06-03T17:52:19.665Z,12.44
2017-06-03T17:54:48.055Z,10.56
2017-06-03T17:57:16.413Z,16.24
2017-06-03T17:59:44.792Z,8.96
2017-06-03T18:02:13.153Z,9.56
2017-06-03T18:04:41.558Z,8.84
2017-06-03T18:07:09.953Z,8.66
2017-06-03T18:09:38.314Z,9.38
2017-06-03T18:12:06.709Z,9.58
2017-06-03T18:14:35.068Z,9.14
2017-06-03T18:17:03.446Z,9.02
2017-06-03T18:19:31.874Z,8.60
2017-06-03T18:22:00.282Z,8.30
2017-06-03T18:24:42.511Z,8.64
2017-06-03T18:27:10.928Z,9.24
2017-06-03T18:29:39.287Z,8.52
2017-06-03T18:32:07.676Z,7.74
2017-06-03T18:34:36.055Z,8.76
2017-06-03T18:37:04.412Z,8.64
2017-06-03T18:39:32.799Z,11.32
2017-06-03T18:42:01.159Z,8.92
2017-06-03T18:44:29.579Z,9.60
2017-06-03T18:46:57.971Z,8.50
2017-06-03T18:49:26.385Z,9.00
2017-06-03T18:51:54.743Z,12.66
2017-06-03T18:54:23.289Z,8.62
2017-06-03T18:56:51.660Z,10.00
2017-06-03T18:59:20.046Z,9.72
2017-06-03T19:01:48.405Z,9.22
2017-06-03T19:04:16.762Z,10.50
2017-06-03T19:06:45.167Z,9.14
2017-06-03T19:09:13.566Z,8.90
2017-06-03T19:11:41.952Z,8.18
2017-06-03T19:14:10.340Z,8.64
2017-06-03T19:16:38.715Z,9.42
2017-06-03T19:19:07.073Z,9.46
2017-06-03T19:21:35.451Z,9.18
2017-06-03T19:24:03.881Z,11.16
2017-06-03T19:26:32.278Z,9.24
2017-06-03T19:29:00.640Z,9.00
2017-06-03T19:31:29.031Z,8.12
2017-06-03T19:33:57.443Z,8.32
2017-06-03T19:36:25.804Z,7.88
2017-06-03T19:38:54.181Z,8.34
2017-06-03T19:41:22.540Z,7.46
2017-06-03T19:43:50.935Z,8.44
2017-06-03T19:46:19.375Z,8.18
2017-06-03T19:48:47.767Z,8.22
2017-06-03T19:51:16.258Z,7.32
2017-06-03T19:53:44.615Z,7.66
2017-06-03T19:56:13.000Z,8.12
2017-06-03T19:58:41.358Z,8.10
2017-06-03T20:01:09.755Z,8.50
2017-06-03T20:03:38.115Z,7.80
2017-06-03T20:06:06.515Z,9.04
2017-06-03T20:08:34.867Z,8.12
2017-06-03T20:11:03.251Z,8.08
2017-06-03T20:13:31.622Z,8.64
2017-06-03T20:15:59.999Z,7.58
2017-06-03T20:18:28.375Z,8.52
2017-06-03T20:20:56.776Z,13.96
2017-06-03T20:23:25.169Z,8.08
2017-06-03T20:25:53.523Z,8.34
2017-06-03T20:28:22.090Z,13.08
2017-06-03T20:30:50.482Z,8.02
2017-06-03T20:33:18.843Z,9.98
2017-06-03T20:35:47.255Z,9.36
2017-06-03T20:38:15.610Z,10.16
2017-06-03T20:40:44.030Z,12.96
2017-06-03T20:43:12.411Z,11.86
2017-06-03T20:45:40.809Z,14.00
2017-06-03T20:48:08.421Z,14.36
2017-06-03T20:50:36.792Z,19.18
2017-06-03T20:53:05.196Z,17.18
2017-06-03T20:55:33.568Z,18.94
2017-06-03T20:58:01.960Z,18.38
2017-06-03T21:00:30.324Z,20.10
2017-06-03T21:02:58.713Z,20.30
2017-06-03T21:05:27.076Z,24.32
2017-06-03T21:07:55.478Z,22.02
2017-06-03T21:10:23.079Z,19.76
2017-06-03T21:12:51.553Z,20.00
2017-06-03T21:15:19.934Z,21.86
2017-06-03T21:17:48.343Z,20.86
2017-06-03T21:20:16.735Z,20.26
2017-06-03T21:22:46.152Z,20.54
2017-06-03T21:25:14.543Z,20.62
2017-06-03T21:27:42.934Z,18.08
2017-06-03T21:30:11.328Z,19.78
2017-06-03T21:32:39.703Z,19.96
2017-06-03T21:35:08.066Z,19.94
2017-06-03T21:37:36.451Z,20.38
2017-06-03T21:40:04.819Z,22.36
2017-06-03T21:42:33.224Z,20.94
2017-06-03T21:45:01.591Z,22.24
2017-06-03T21:47:30.006Z,21.36
2017-06-03T21:49:58.367Z,23.26
2017-06-03T21:52:26.735Z,21.22
2017-06-03T21:54:55.126Z,25.74
2017-06-03T21:57:23.487Z,24.84
2017-06-03T21:59:51.111Z,23.00
2017-06-03T22:02:19.477Z,23.52
2017-06-03T22:04:47.867Z,21.10
2017-06-03T22:07:16.236Z,26.28
2017-06-03T22:09:44.683Z,25.60
2017-06-03T22:12:13.077Z,22.08
2017-06-03T22:14:41.450Z,24.42
2017-06-03T22:17:09.842Z,25.54
2017-06-03T22:19:38.203Z,21.84
2017-06-03T22:22:06.588Z,22.54
2017-06-03T22:24:34.955Z,22.64
2017-06-03T22:27:03.353Z,23.04
2017-06-03T22:29:31.718Z,23.36
2017-06-03T22:32:00.099Z,24.96
2017-06-03T22:34:28.512Z,22.04
2017-06-03T22:36:56.887Z,21.20
2017-06-03T22:39:25.276Z,21.38
2017-06-03T22:41:53.638Z,19.66
2017-06-03T22:44:22.025Z,20.10
2017-06-03T22:46:50.412Z,18.06
2017-06-03T22:49:18.799Z,18.84
2017-06-03T22:51:47.163Z,16.76
2017-06-03T22:54:15.523Z,16.32
2017-06-03T22:56:43.910Z,15.24
2017-06-03T22:59:12.273Z,16.38
2017-06-03T23:01:40.663Z,15.04
2017-06-03T23:04:09.029Z,16.36
2017-06-03T23:06:37.411Z,16.20
2017-06-03T23:09:05.774Z,16.10
2017-06-03T23:11:34.168Z,18.58
2017-06-03T23:14:02.537Z,15.88
2017-06-03T23:16:30.899Z,17.38
2017-06-03T23:18:59.304Z,18.50
2017-06-03T23:21:27.667Z,18.12
2017-06-03T23:23:56.058Z,17.18
2017-06-03T23:26:24.422Z,16.40
2017-06-03T23:28:52.827Z,16.04
2017-06-03T23:31:20.423Z,15.98
2017-06-03T23:33:48.860Z,16.22
2017-06-03T23:36:17.281Z,15.04
2017-06-03T23:38:45.685Z,16.54
2017-06-03T23:41:14.079Z,21.08
2017-06-03T23:43:42.463Z,14.00
2017-06-03T23:46:10.852Z,13.78
2017-06-03T23:48:39.221Z,12.26
2017-06-03T23:51:07.612Z,13.52
2017-06-03T23:53:35.978Z,12.46
2017-06-03T23:56:04.390Z,12.62
2017-06-03T23:58:32.755Z,14.14
